Time;durP1;ratioP1;P1;durP2;ratioP2;P2;SDS_P1;SDS_P2;PMS_P1;PMS_P2;Temp;Humidity;BMP_temperature;BMP_pressure;BME280_temperature;BME280_humidity;BME280_pressure;Samples;Min_cycle;Max_cycle;Signal;HPM_P1;HPM_P2
2022/08/14 00:00:02;;;;;;;3.20;1.40;;;21.50;98.30;;;;;;5011412;28;20046;-76
2022/08/14 00:02:29;;;;;;;1.40;1.00;;;21.40;98.60;;;;;;5011212;28;20049;-75
2022/08/14 00:04:57;;;;;;;3.08;1.23;;;21.40;99.10;;;;;;5005027;28;20046;-75
2022/08/14 00:07:23;;;;;;;2.50;1.42;;;21.30;99.00;;;;;;5011290;28;20527;-76
2022/08/14 00:09:52;;;;;;;2.00;1.08;;;21.30;98.90;;;;;;5010449;28;20049;-75
2022/08/14 00:12:49;;;;;;;5.28;1.00;;;21.30;99.20;;;;;;5010946;28;20066;-75
2022/08/14 00:15:35;;;;;;;1.45;1.20;;;21.20;99.30;;;;;;5010442;28;20069;-75
2022/08/14 00:18:12;;;;;;;3.17;1.10;;;21.10;99.60;;;;;;5010682;28;20508;-76
2022/08/14 00:20:41;;;;;;;2.58;1.30;;;21.00;99.70;;;;;;5011493;28;20121;-76
2022/08/14 00:23:12;;;;;;;2.45;1.10;;;21.10;99.70;;;;;;5010558;28;20073;-75
2022/08/14 00:25:45;;;;;;;5.05;1.50;;;21.10;99.70;;;;;;5010763;28;20077;-76
2022/08/14 00:28:33;;;;;;;1.83;1.20;;;21.00;99.70;;;;;;5010708;28;20046;-75
2022/08/14 00:31:03;;;;;;;1.80;1.25;;;21.10;99.40;;;;;;5010993;28;20077;-76
2022/08/14 00:33:31;;;;;;;1.90;1.20;;;21.10;99.40;;;;;;5011216;28;20129;-75
2022/08/14 00:36:18;;;;;;;1.75;1.25;;;21.10;99.40;;;;;;5010559;28;20060;-75
2022/08/14 00:39:05;;;;;;;2.95;1.30;;;21.00;99.40;;;;;;5010480;28;20759;-76
2022/08/14 00:41:35;;;;;;;3.10;1.20;;;21.00;99.70;;;;;;5008378;28;20054;-75
2022/08/14 00:44:05;;;;;;;2.47;1.40;;;21.00;99.90;;;;;;5014908;28;20050;-75
2022/08/14 00:46:34;;;;;;;1.60;1.00;;;20.90;99.90;;;;;;5014923;28;20293;-75
2022/08/14 00:49:02;;;;;;;3.53;1.38;;;20.80;99.90;;;;;;5014548;28;20471;-76
2022/08/14 00:51:32;;;;;;;2.30;1.10;;;20.80;99.90;;;;;;5013197;28;20126;-76
2022/08/14 00:54:07;;;;;;;2.22;1.08;;;20.70;99.90;;;;;;5013854;28;20068;-75
2022/08/14 00:56:48;;;;;;;2.45;1.30;;;20.70;99.90;;;;;;5015018;28;20060;-75
2022/08/14 00:59:15;;;;;;;4.00;1.13;;;20.70;99.90;;;;;;5013370;28;20085;-76
2022/08/14 01:01:43;;;;;;;3.45;1.40;;;20.70;99.90;;;;;;5014614;28;20049;-75
2022/08/14 01:04:12;;;;;;;2.13;1.40;;;20.70;99.90;;;;;;5014588;28;20511;-76
2022/08/14 01:06:59;;;;;;;1.80;1.02;;;20.60;99.90;;;;;;5014561;28;20057;-76
2022/08/14 01:09:30;;;;;;;4.32;1.30;;;20.50;99.90;;;;;;5014229;28;20080;-76
2022/08/14 01:11:57;;;;;;;2.58;1.20;;;20.60;99.90;;;;;;5014206;28;20050;-76
2022/08/14 01:14:29;;;;;;;3.63;1.48;;;20.50;99.90;;;;;;5014604;28;20088;-75
2022/08/14 01:16:56;;;;;;;4.13;1.50;;;20.50;99.90;;;;;;5014239;28;20050;-76
2022/08/14 01:22:14;;;;;;;1.27;1.00;;;20.50;99.90;;;;;;5014169;28;20080;-76
2022/08/14 01:24:45;;;;;;;2.13;1.23;;;20.50;99.90;;;;;;5014157;28;20081;-76
2022/08/14 01:27:21;;;;;;;1.40;1.20;;;20.40;99.90;;;;;;5013528;28;20049;-75
2022/08/14 01:29:53;;;;;;;3.75;1.52;;;20.50;99.90;;;;;;5013653;28;20053;-75
2022/08/14 01:32:30;;;;;;;7.18;1.50;;;20.50;99.90;;;;;;5013136;28;20045;-75
2022/08/14 01:35:08;;;;;;;2.00;1.20;;;20.50;99.90;;;;;;5014034;28;20049;-75
2022/08/14 01:37:47;;;;;;;2.72;1.38;;;20.40;99.90;;;;;;5012734;28;20054;-75
2022/08/14 01:40:26;;;;;;;2.10;1.50;;;20.40;99.90;;;;;;5013666;28;20100;-76
2022/08/14 01:43:13;;;;;;;5.57;1.38;;;20.30;99.90;;;;;;5013998;28;20073;-76
2022/08/14 01:45:41;;;;;;;1.50;1.30;;;20.30;99.90;;;;;;5014266;28;20050;-75
2022/08/14 01:48:08;;;;;;;3.78;1.20;;;20.30;99.90;;;;;;5013684;28;20512;-76
2022/08/14 01:50:40;;;;;;;3.33;1.63;;;20.20;99.90;;;;;;5013540;28;20050;-75
2022/08/14 01:53:07;;;;;;;2.72;1.45;;;20.10;99.90;;;;;;5013715;28;20133;-75
2022/08/14 01:55:35;;;;;;;2.63;1.17;;;20.10;99.90;;;;;;5013900;28;20133;-75
2022/08/14 01:58:03;;;;;;;1.30;1.20;;;20.10;99.90;;;;;;5013551;28;20170;-75
2022/08/14 02:00:53;;;;;;;5.22;1.80;;;19.90;99.90;;;;;;5013412;28;20057;-75
2022/08/14 02:03:30;;;;;;;1.65;1.35;;;19.90;99.90;;;;;;5013815;28;20049;-75
2022/08/14 02:06:01;;;;;;;2.17;1.63;;;19.90;99.90;;;;;;5013170;28;20077;-75
2022/08/14 02:08:48;;;;;;;3.05;1.40;;;19.90;99.90;;;;;;5013284;28;20046;-74
2022/08/14 02:11:23;;;;;;;5.38;1.30;;;19.90;99.90;;;;;;5013173;28;20499;-75
2022/08/14 02:14:03;;;;;;;9.63;1.63;;;20.00;99.90;;;;;;5013704;28;20614;-75
2022/08/14 02:16:39;;;;;;;3.75;1.40;;;19.90;99.90;;;;;;5010866;28;20096;-75
2022/08/14 02:19:14;;;;;;;3.72;1.48;;;19.90;99.90;;;;;;5012955;28;20077;-75
2022/08/14 02:21:43;;;;;;;4.13;1.50;;;19.90;99.90;;;;;;5013133;28;20049;-76
2022/08/14 02:24:15;;;;;;;4.90;1.60;;;19.90;99.90;;;;;;5013037;28;20104;-77
2022/08/14 02:27:03;;;;;;;2.53;1.15;;;19.80;99.90;;;;;;5012775;28;20507;-77
2022/08/14 02:29:53;;;;;;;1.40;1.30;;;19.80;99.90;;;;;;5012649;28;20057;-75
2022/08/14 02:32:26;;;;;;;4.53;1.52;;;19.80;99.90;;;;;;5012320;28;20048;-76
2022/08/14 02:35:15;;;;;;;3.08;1.48;;;19.80;99.90;;;;;;5013184;28;20081;-77
2022/08/14 02:37:45;;;;;;;1.60;1.10;;;19.80;99.90;;;;;;5011278;28;20059;-76
2022/08/14 02:40:17;;;;;;;1.98;1.55;;;19.70;99.90;;;;;;5012524;28;20096;-77
2022/08/14 02:42:44;;;;;;;2.80;1.48;;;19.70;99.90;;;;;;5012808;28;20081;-77
2022/08/14 02:45:24;;;;;;;5.03;1.58;;;19.70;99.90;;;;;;5012916;28;20054;-77
2022/08/14 02:48:06;;;;;;;1.80;1.30;;;19.70;99.90;;;;;;5012454;28;20052;-77
2022/08/14 02:50:53;;;;;;;1.75;1.25;;;19.60;99.90;;;;;;5012459;28;20096;-77
2022/08/14 02:53:19;;;;;;;4.60;1.48;;;19.60;99.90;;;;;;5012338;28;20128;-76
2022/08/14 02:55:46;;;;;;;5.55;1.40;;;19.60;99.90;;;;;;5012750;28;20423;-76
2022/08/14 02:58:14;;;;;;;3.67;1.50;;;19.50;99.90;;;;;;5012269;28;20046;-76
2022/08/14 03:00:59;;;;;;;3.58;1.20;;;19.40;99.90;;;;;;5012662;28;20046;-76
2022/08/14 03:03:27;;;;;;;2.17;1.63;;;19.40;99.90;;;;;;5012499;28;20050;-77
2022/08/14 03:05:57;;;;;;;5.68;2.13;;;19.30;99.90;;;;;;5009364;28;20049;-77
2022/08/14 03:08:30;;;;;;;4.60;1.45;;;19.30;99.90;;;;;;5012313;28;20411;-77
2022/08/14 03:10:58;;;;;;;1.77;1.25;;;19.30;99.90;;;;;;5008686;28;20088;-76
2022/08/14 03:13:26;;;;;;;2.63;1.70;;;19.40;99.90;;;;;;5012324;28;20053;-76
2022/08/14 03:15:55;;;;;;;3.40;1.55;;;19.30;99.90;;;;;;5012443;28;20129;-77
2022/08/14 03:18:27;;;;;;;2.80;1.55;;;19.30;99.90;;;;;;5011924;28;20074;-76
2022/08/14 03:21:01;;;;;;;4.60;1.90;;;19.30;99.90;;;;;;5011889;28;20416;-76
2022/08/14 03:23:31;;;;;;;2.90;1.38;;;19.30;99.90;;;;;;5012214;28;20188;-76
2022/08/14 03:25:59;;;;;;;1.92;1.50;;;19.30;99.90;;;;;;5011896;28;20056;-76
2022/08/14 03:28:28;;;;;;;3.45;1.48;;;19.20;99.90;;;;;;5012647;28;20045;-76
2022/08/14 03:31:00;;;;;;;3.88;1.60;;;19.10;99.90;;;;;;5012148;28;20078;-76
2022/08/14 03:33:28;;;;;;;4.45;1.55;;;19.10;99.90;;;;;;5012336;28;20046;-76
2022/08/14 03:36:13;;;;;;;4.68;1.60;;;19.00;99.90;;;;;;5011499;28;20057;-77
2022/08/14 03:39:02;;;;;;;3.10;1.67;;;19.00;99.90;;;;;;5011757;28;20533;-76
2022/08/14 03:41:40;;;;;;;4.22;1.73;;;19.00;99.90;;;;;;5011700;28;20060;-77
2022/08/14 03:44:07;;;;;;;5.07;1.63;;;19.00;99.90;;;;;;5011889;28;20129;-76
2022/08/14 03:46:54;;;;;;;1.95;1.55;;;19.00;99.90;;;;;;5011925;28;20054;-76
2022/08/14 03:49:23;;;;;;;3.38;1.42;;;18.80;99.90;;;;;;5011302;28;20057;-76
2022/08/14 03:51:56;;;;;;;1.88;1.52;;;18.80;99.90;;;;;;5011320;28;20092;-75
2022/08/14 03:54:27;;;;;;;3.65;1.35;;;18.90;99.90;;;;;;5011480;28;20057;-75
2022/08/14 03:56:54;;;;;;;3.88;1.50;;;19.00;99.90;;;;;;5011654;28;20571;-76
2022/08/14 03:59:21;;;;;;;5.38;1.30;;;19.00;99.90;;;;;;5011276;28;20046;-76
2022/08/14 04:01:50;;;;;;;2.58;1.58;;;18.90;99.90;;;;;;5011410;28;20136;-77
2022/08/14 04:04:31;;;;;;;1.77;1.40;;;18.90;99.90;;;;;;5010983;28;20046;-77
2022/08/14 04:06:59;;;;;;;3.13;1.50;;;18.90;99.90;;;;;;5011396;28;20057;-76
2022/08/14 04:09:26;;;;;;;9.30;1.50;;;18.90;99.90;;;;;;5011280;28;20108;-77
2022/08/14 04:11:54;;;;;;;2.42;1.75;;;18.80;99.90;;;;;;5011451;28;20042;-77
2022/08/14 04:14:23;;;;;;;2.40;1.60;;;18.80;99.90;;;;;;5011155;28;20046;-76
2022/08/14 04:16:50;;;;;;;6.88;1.70;;;18.60;99.90;;;;;;5010706;28;20050;-77
2022/08/14 04:19:22;;;;;;;2.72;1.67;;;18.60;99.90;;;;;;5010961;28;20046;-75
2022/08/14 04:21:50;;;;;;;3.45;1.38;;;18.60;99.90;;;;;;5010685;28;20057;-76
2022/08/14 04:24:31;;;;;;;1.47;1.23;;;18.60;99.90;;;;;;5011538;28;20046;-76
2022/08/14 04:27:07;;;;;;;4.10;1.52;;;18.60;99.90;;;;;;5009210;28;20069;-76
2022/08/14 04:29:37;;;;;;;2.55;1.55;;;18.70;99.90;;;;;;5010203;28;20559;-76
2022/08/14 04:32:07;;;;;;;1.80;1.27;;;18.60;99.90;;;;;;5011294;28;20052;-76
2022/08/14 04:34:53;;;;;;;6.55;1.63;;;18.60;99.90;;;;;;5011042;28;20655;-76
2022/08/14 04:45:47;;;;;;;4.00;1.40;;;18.50;99.90;;;;;;5008997;28;20058;-76
2022/08/14 04:48:19;;;;;;;3.33;1.48;;;18.50;99.90;;;;;;5010990;28;20081;-76
2022/08/14 04:51:09;;;;;;;2.63;1.60;;;18.50;99.90;;;;;;5010970;28;20064;-76
2022/08/14 04:53:40;;;;;;;6.32;1.60;;;18.50;99.90;;;;;;5009627;28;20133;-76
2022/08/14 04:56:16;;;;;;;2.05;1.30;;;18.40;99.90;;;;;;5010033;28;20588;-76
2022/08/14 04:59:04;;;;;;;1.95;1.27;;;18.40;99.90;;;;;;5010733;28;20396;-76
2022/08/14 05:01:43;;;;;;;1.75;1.20;;;18.50;99.90;;;;;;5009827;28;20073;-76
2022/08/14 05:04:14;;;;;;;1.83;1.40;;;18.50;99.90;;;;;;5010238;28;20587;-76
2022/08/14 05:06:45;;;;;;;3.28;1.45;;;18.50;99.90;;;;;;5010804;28;20049;-74
2022/08/14 05:09:14;;;;;;;2.47;1.45;;;18.60;99.90;;;;;;5010753;28;20054;-77
2022/08/14 05:11:42;;;;;;;2.50;1.48;;;18.60;99.90;;;;;;5010896;28;20056;-76
2022/08/14 05:14:10;;;;;;;3.53;1.30;;;18.70;99.90;;;;;;5009318;28;20053;-76
2022/08/14 05:16:57;;;;;;;2.38;1.02;;;18.80;99.90;;;;;;5010937;28;20054;-77
2022/08/14 05:19:28;;;;;;;2.65;1.30;;;18.80;99.90;;;;;;5009289;28;20053;-77
2022/08/14 05:21:59;;;;;;;4.35;1.35;;;18.90;99.90;;;;;;5009560;28;20092;-76
2022/08/14 05:24:48;;;;;;;1.50;1.30;;;18.90;99.90;;;;;;5009868;28;20050;-77
2022/08/14 05:27:19;;;;;;;2.03;1.30;;;18.90;99.90;;;;;;5008811;28;20057;-77
2022/08/14 05:29:54;;;;;;;4.82;1.60;;;19.00;99.90;;;;;;5013405;28;20054;-76
2022/08/14 05:32:24;;;;;;;2.47;1.60;;;19.00;99.90;;;;;;5014115;28;20049;-75
2022/08/14 05:34:56;;;;;;;4.32;1.42;;;18.90;99.90;;;;;;5014326;28;20050;-77
2022/08/14 05:37:25;;;;;;;1.67;1.20;;;19.10;99.90;;;;;;5014285;28;20057;-77
2022/08/14 05:39:53;;;;;;;5.05;1.58;;;19.10;99.90;;;;;;5013799;28;20045;-77
2022/08/14 05:42:21;;;;;;;3.35;1.38;;;19.10;99.90;;;;;;5013802;28;20050;-76
2022/08/14 05:44:58;;;;;;;5.32;1.58;;;19.10;99.90;;;;;;5014202;28;20137;-76
2022/08/14 05:47:25;;;;;;;4.15;1.30;;;19.20;99.90;;;;;;5014175;28;20057;-75
2022/08/14 05:49:57;;;;;;;4.78;1.33;;;19.20;99.90;;;;;;5012742;28;20103;-76
2022/08/14 05:52:23;;;;;;;8.55;1.60;;;19.20;99.90;;;;;;5013446;28;20049;-75
2022/08/14 05:55:07;;;;;;;2.95;1.33;;;19.20;99.90;;;;;;5014087;28;20053;-76
2022/08/14 05:57:34;;;;;;;2.50;1.73;;;19.20;99.90;;;;;;5013924;28;20046;-76
2022/08/14 06:00:02;;;;;;;1.63;1.40;;;19.20;99.90;;;;;;5013407;28;20042;-75
2022/08/14 06:02:31;;;;;;;2.63;1.35;;;19.20;99.90;;;;;;5013476;28;20128;-75
2022/08/14 06:05:01;;;;;;;1.70;1.40;;;19.20;99.90;;;;;;5014077;28;20053;-75
2022/08/14 06:07:28;;;;;;;2.28;1.35;;;19.30;99.90;;;;;;5011877;28;20069;-75
2022/08/14 06:09:55;;;;;;;2.17;1.60;;;19.30;99.90;;;;;;5013299;28;20088;-75
2022/08/14 06:12:29;;;;;;;1.67;1.30;;;19.30;99.90;;;;;;5010932;28;20104;-75
2022/08/14 06:15:16;;;;;;;3.20;1.42;;;19.40;99.90;;;;;;5013547;28;20088;-76
2022/08/14 06:17:51;;;;;;;2.75;1.48;;;19.40;99.90;;;;;;5011842;28;20099;-75
2022/08/14 06:20:25;;;;;;;3.95;1.50;;;19.40;99.90;;;;;;5007270;28;20056;-76
2022/08/14 06:22:54;;;;;;;2.72;1.67;;;19.50;99.90;;;;;;5002479;28;20054;-75
2022/08/14 06:25:22;;;;;;;4.57;1.70;;;19.50;99.90;;;;;;5007406;28;20077;-75
2022/08/14 06:27:50;;;;;;;2.90;1.30;;;19.50;99.90;;;;;;5009265;28;20046;-76
2022/08/14 06:30:20;;;;;;;2.05;1.50;;;19.60;99.90;;;;;;5007199;28;20133;-75
2022/08/14 06:32:47;;;;;;;2.40;1.75;;;19.60;99.90;;;;;;5007724;28;20077;-75
2022/08/14 06:35:22;;;;;;;4.85;1.60;;;19.70;99.90;;;;;;5007781;28;20050;-75
2022/08/14 06:37:50;;;;;;;;;;;19.70;99.90;;;;;;5010701;28;20078;-75
2022/08/14 06:40:22;;;;;;;2.15;1.88;;;19.80;99.90;;;;;;5001732;28;19957;-75
2022/08/14 06:43:03;;;;;;;5.00;2.63;;;19.80;99.90;;;;;;5007544;28;20050;-76
2022/08/14 06:45:31;;;;;;;4.57;2.30;;;19.90;99.90;;;;;;5006766;28;20083;-77
2022/08/14 06:47:59;;;;;;;4.28;2.40;;;19.90;99.90;;;;;;5007215;28;20049;-75
2022/08/14 06:50:28;;;;;;;4.93;1.95;;;19.90;99.90;;;;;;5007343;28;20108;-76
2022/08/14 06:52:57;;;;;;;1.90;1.67;;;20.00;99.90;;;;;;5011055;28;20077;-75
2022/08/14 06:55:24;;;;;;;4.28;1.80;;;20.00;99.90;;;;;;5010766;28;20456;-75
2022/08/14 06:57:55;;;;;;;2.08;1.75;;;20.10;99.90;;;;;;5004170;28;20049;-76
2022/08/14 07:00:25;;;;;;;6.70;1.90;;;20.10;99.90;;;;;;5010633;28;20527;-75
2022/08/14 07:05:48;;;;;;;3.20;1.77;;;20.20;99.90;;;;;;5010485;28;20134;-75
2022/08/14 07:08:25;;;;;;;3.92;2.47;;;20.20;99.90;;;;;;5004709;28;20112;-75
2022/08/14 07:10:58;;;;;;;3.40;1.90;;;20.30;99.90;;;;;;5009669;28;20054;-75
2022/08/14 07:13:27;;;;;;;7.05;1.92;;;20.40;99.90;;;;;;5009121;28;20125;-76
2022/08/14 07:15:55;;;;;;;2.92;1.70;;;20.50;99.90;;;;;;5008812;28;20523;-75
2022/08/14 07:18:26;;;;;;;3.90;2.45;;;20.60;99.90;;;;;;5011646;28;20077;-75
2022/08/14 07:20:55;;;;;;;1.73;1.58;;;20.60;99.90;;;;;;5008109;28;20056;-76
2022/08/14 07:23:25;;;;;;;2.50;1.60;;;20.70;99.90;;;;;;5006928;28;20100;-74
2022/08/14 07:25:55;;;;;;;2.88;2.00;;;20.70;99.90;;;;;;5011906;28;20053;-75
2022/08/14 07:28:27;;;;;;;2.30;1.60;;;20.80;99.90;;;;;;5007528;28;20046;-75
2022/08/14 07:30:56;;;;;;;2.85;1.70;;;20.90;99.90;;;;;;5010604;28;20068;-75
2022/08/14 07:33:47;;;;;;;2.70;2.05;;;21.00;99.90;;;;;;5008051;28;20049;-76
2022/08/14 07:36:19;;;;;;;5.55;1.85;;;21.00;99.90;;;;;;4999370;28;20050;-75
2022/08/14 07:38:57;;;;;;;2.83;1.88;;;21.10;99.90;;;;;;5004436;28;20053;-76
2022/08/14 07:41:24;;;;;;;4.38;1.60;;;21.10;99.90;;;;;;5006449;28;20088;-75
2022/08/14 07:43:59;;;;;;;3.83;2.08;;;21.20;99.90;;;;;;5007321;28;20100;-76
2022/08/14 07:46:45;;;;;;;2.13;1.67;;;21.20;99.90;;;;;;5011063;28;20065;-74
2022/08/14 07:49:13;;;;;;;3.45;2.00;;;21.30;99.90;;;;;;5011057;28;20132;-76
2022/08/14 07:51:44;;;;;;;3.17;1.92;;;21.30;99.90;;;;;;5011021;28;20049;-76
2022/08/14 07:54:11;;;;;;;4.47;1.40;;;21.30;99.90;;;;;;5010455;28;20111;-75
2022/08/14 07:56:42;;;;;;;3.42;1.70;;;21.30;99.90;;;;;;5009247;28;20052;-75
2022/08/14 07:59:15;;;;;;;2.35;1.75;;;21.40;99.90;;;;;;5010783;28;20125;-76
2022/08/14 08:01:43;;;;;;;2.78;1.90;;;21.40;99.90;;;;;;5010482;28;20050;-75
2022/08/14 08:04:22;;;;;;;5.32;2.20;;;21.50;99.90;;;;;;5008581;28;20562;-76
2022/08/14 08:06:51;;;;;;;2.45;1.65;;;21.60;99.90;;;;;;5007210;28;20085;-76
2022/08/14 08:09:24;;;;;;;2.55;1.77;;;21.60;99.90;;;;;;5005886;28;20049;-76
2022/08/14 08:12:01;;;;;;;5.25;1.80;;;21.60;99.90;;;;;;5006758;28;20487;-76
2022/08/14 08:14:34;;;;;;;5.15;1.80;;;21.70;99.90;;;;;;5009964;28;20042;-76
2022/08/14 08:17:22;;;;;;;5.75;1.70;;;21.80;99.90;;;;;;5007602;28;20048;-76
2022/08/14 08:19:50;;;;;;;2.38;1.52;;;21.90;99.90;;;;;;5008681;28;20042;-76
2022/08/14 08:22:18;;;;;;;3.00;1.83;;;21.90;99.90;;;;;;5008633;28;20053;-76
2022/08/14 08:24:45;;;;;;;3.42;1.90;;;22.10;99.90;;;;;;5010730;28;20046;-76
2022/08/14 08:27:16;;;;;;;3.55;1.42;;;22.20;99.90;;;;;;5009256;28;20475;-76
2022/08/14 08:29:43;;;;;;;5.35;1.85;;;22.20;99.90;;;;;;5007772;28;20598;-76
2022/08/14 08:32:17;;;;;;;4.13;1.70;;;22.30;99.90;;;;;;5005325;28;20503;-76
2022/08/14 08:34:45;;;;;;;2.47;1.67;;;22.40;99.90;;;;;;5010395;28;20096;-76
2022/08/14 08:37:13;;;;;;;3.05;1.58;;;22.40;99.90;;;;;;5007471;28;20141;-75
2022/08/14 08:39:47;;;;;;;4.10;1.88;;;22.50;99.90;;;;;;5004123;28;20046;-75
2022/08/14 08:42:30;;;;;;;3.50;1.60;;;22.60;99.90;;;;;;5007056;28;20049;-78
2022/08/14 08:45:19;;;;;;;1.90;1.70;;;22.70;99.90;;;;;;5006842;28;20046;-75
2022/08/14 08:47:47;;;;;;;5.72;1.45;;;22.80;99.90;;;;;;5007897;28;20038;-75
2022/08/14 08:50:19;;;;;;;3.10;1.65;;;22.80;99.90;;;;;;5002221;28;20125;-78
2022/08/14 08:52:59;;;;;;;2.13;1.52;;;22.90;99.90;;;;;;5007629;28;20133;-75
2022/08/14 08:55:35;;;;;;;3.25;2.00;;;23.00;99.90;;;;;;5004278;28;20042;-75
2022/08/14 08:58:11;;;;;;;1.70;1.48;;;23.10;99.90;;;;;;5006392;28;20052;-76
2022/08/14 09:00:52;;;;;;;2.45;1.65;;;23.20;99.80;;;;;;5006555;28;20046;-75
2022/08/14 09:03:24;;;;;;;7.03;2.90;;;23.30;99.70;;;;;;5007961;28;20074;-75
2022/08/14 09:06:04;;;;;;;4.00;1.55;;;23.30;99.40;;;;;;5011171;28;20100;-75
2022/08/14 09:08:51;;;;;;;1.83;1.55;;;23.40;99.60;;;;;;5013319;28;20062;-75
2022/08/14 09:11:18;;;;;;;3.47;1.75;;;23.40;99.50;;;;;;5014678;28;20050;-75
2022/08/14 09:13:52;;;;;;;5.18;1.70;;;23.50;99.80;;;;;;5013398;28;20042;-75
2022/08/14 09:16:24;;;;;;;2.10;1.63;;;23.60;99.50;;;;;;5013122;28;20057;-75
2022/08/14 09:18:52;;;;;;;2.78;1.75;;;23.60;99.80;;;;;;5013100;28;20050;-75
2022/08/14 09:21:21;;;;;;;2.60;1.45;;;23.70;99.30;;;;;;5014594;28;20048;-75
2022/08/14 09:23:53;;;;;;;3.85;1.55;;;23.70;99.50;;;;;;5013497;28;20092;-75
2022/08/14 09:26:41;;;;;;;1.83;1.45;;;23.80;99.70;;;;;;5011873;28;20051;-75
2022/08/14 09:29:10;;;;;;;5.45;1.80;;;23.80;98.90;;;;;;5014269;28;20104;-76
2022/08/14 09:31:43;;;;;;;5.47;2.22;;;23.90;99.20;;;;;;5013017;28;20050;-75
2022/08/14 09:34:22;;;;;;;2.10;1.90;;;23.90;99.70;;;;;;5014018;28;20042;-75
2022/08/14 09:37:15;;;;;;;2.45;2.13;;;24.00;99.70;;;;;;5012477;28;20053;-75
2022/08/14 09:39:50;;;;;;;5.13;1.67;;;24.00;99.80;;;;;;5013628;28;20134;-76
2022/08/14 09:42:39;;;;;;;3.15;1.98;;;24.00;99.70;;;;;;5014334;28;20062;-76
2022/08/14 09:45:27;;;;;;;2.30;1.70;;;24.10;99.80;;;;;;5014139;28;20042;-75
2022/08/14 09:48:14;;;;;;;3.33;1.63;;;24.10;99.50;;;;;;5012669;28;20061;-75
2022/08/14 09:50:51;;;;;;;4.57;1.77;;;24.20;99.20;;;;;;5012752;28;20055;-75
2022/08/14 09:53:42;;;;;;;3.25;1.60;;;24.20;99.10;;;;;;5010358;28;20125;-76
2022/08/14 09:56:30;;;;;;;1.95;1.25;;;24.30;99.30;;;;;;5011307;28;20049;-76
2022/08/14 09:59:12;;;;;;;1.92;1.65;;;24.30;99.90;;;;;;5010603;28;20462;-76
2022/08/14 10:01:43;;;;;;;3.33;1.50;;;24.30;99.90;;;;;;5012361;28;20050;-76
2022/08/14 10:04:23;;;;;;;3.40;1.42;;;24.40;99.60;;;;;;5011351;28;20061;-76
2022/08/14 10:07:04;;;;;;;3.70;1.98;;;24.50;99.90;;;;;;5010423;28;20089;-76
2022/08/14 10:09:32;;;;;;;2.08;1.25;;;24.60;99.80;;;;;;5009135;28;20057;-76
2022/08/14 10:12:01;;;;;;;2.85;1.40;;;24.70;99.60;;;;;;5011208;28;20042;-76
2022/08/14 10:14:33;;;;;;;1.63;1.27;;;24.80;99.70;;;;;;5008666;28;20053;-76
2022/08/14 10:17:04;;;;;;;4.20;1.73;;;24.90;99.70;;;;;;5009793;28;20050;-76
2022/08/14 10:19:33;;;;;;;5.45;1.60;;;25.00;99.90;;;;;;5009731;28;20050;-76
2022/08/14 10:22:07;;;;;;;2.83;1.38;;;25.10;99.50;;;;;;5009934;28;20515;-76
2022/08/14 10:24:54;;;;;;;6.55;2.05;;;25.10;99.60;;;;;;5006920;28;20054;-76
2022/08/14 10:27:23;;;;;;;1.98;1.67;;;25.30;99.60;;;;;;5011562;28;20120;-76
2022/08/14 10:29:53;;;;;;;3.22;1.58;;;25.40;99.40;;;;;;5006953;28;20435;-76
2022/08/14 10:32:21;;;;;;;4.30;1.70;;;25.60;99.90;;;;;;5007144;28;20475;-76
2022/08/14 10:35:10;;;;;;;3.90;1.98;;;25.70;99.70;;;;;;5005580;28;20147;-76
2022/08/14 10:37:49;;;;;;;4.35;2.20;;;25.90;99.90;;;;;;5008499;28;20130;-76
2022/08/14 10:40:26;;;;;;;3.55;2.00;;;26.00;99.90;;;;;;5007916;28;20042;-76
2022/08/14 10:43:24;;;;;;;4.18;2.47;;;26.20;99.90;;;;;;5005538;28;20132;-76
2022/08/14 10:46:00;;;;;;;4.70;3.33;;;26.30;99.90;;;;;;5008473;28;20666;-76
2022/08/14 10:49:01;;;;;;;4.72;3.55;;;26.60;99.90;;;;;;5004940;28;20070;-77
2022/08/14 10:51:33;;;;;;;6.47;3.30;;;26.70;99.90;;;;;;5005580;28;20104;-76
2022/08/14 10:54:08;;;;;;;3.25;2.95;;;27.00;99.90;;;;;;4992128;23;1090273;-86
2022/08/14 10:56:56;;;;;;;4.72;3.47;;;27.10;99.90;;;;;;5013547;28;20472;-82
2022/08/14 10:59:23;;;;;;;4.45;3.28;;;27.30;99.90;;;;;;5001363;28;20400;-83
2022/08/14 11:02:01;;;;;;;6.07;3.55;;;27.30;99.90;;;;;;5006877;28;20046;-83
2022/08/14 11:04:28;;;;;;;7.22;3.40;;;27.30;99.90;;;;;;4998202;28;20523;-82
2022/08/14 11:06:56;;;;;;;3.80;2.78;;;27.40;99.90;;;;;;4984921;28;20046;-82
2022/08/14 11:09:23;;;;;;;6.85;2.88;;;27.40;99.90;;;;;;5007434;28;20145;-81
2022/08/14 11:11:58;;;;;;;5.57;2.80;;;27.50;99.90;;;;;;5001816;28;20054;-83
2022/08/14 11:14:58;;;;;;;3.65;2.90;;;27.60;99.90;;;;;;4994235;28;20658;-83
2022/08/14 11:17:30;;;;;;;4.18;3.20;;;27.60;99.90;;;;;;4992186;28;20046;-83
2022/08/14 11:20:00;;;;;;;4.75;2.97;;;27.70;99.90;;;;;;5007642;28;20049;-84
2022/08/14 11:22:30;;;;;;;10.05;4.18;;;27.80;99.90;;;;;;5001173;28;20052;-83
2022/08/14 11:25:18;;;;;;;4.18;3.55;;;27.90;99.90;;;;;;5005608;28;20050;-82
2022/08/14 11:27:46;;;;;;;5.70;3.65;;;28.00;99.90;;;;;;5009054;28;20534;-83
2022/08/14 11:30:23;;;;;;;6.38;4.00;;;28.20;99.90;;;;;;5005478;28;20056;-83
2022/08/14 11:33:10;;;;;;;7.07;3.88;;;28.20;99.90;;;;;;5007395;28;20091;-83
2022/08/14 11:35:38;;;;;;;5.72;3.72;;;28.40;99.90;;;;;;4996395;28;20121;-82
2022/08/14 11:38:14;;;;;;;10.10;4.10;;;28.50;99.90;;;;;;4999129;28;20686;-82
2022/08/14 11:40:43;;;;;;;5.50;4.43;;;28.50;99.90;;;;;;4998677;28;20057;-82
2022/08/14 11:43:14;;;;;;;;;;;28.40;99.90;;;;;;4992424;28;20049;-83
2022/08/14 11:45:46;;;;;;;7.95;3.78;;;28.40;99.90;;;;;;4997664;28;20391;-83
2022/08/14 11:48:14;;;;;;;8.05;3.85;;;28.40;99.90;;;;;;5004126;28;20137;-84
2022/08/14 11:51:12;;;;;;;4.80;3.55;;;28.40;99.90;;;;;;5003610;28;20060;-83
2022/08/14 11:53:39;;;;;;;7.38;3.90;;;28.30;99.90;;;;;;5003074;28;20082;-83
2022/08/14 11:56:08;;;;;;;6.47;3.72;;;28.30;99.90;;;;;;4995938;28;20546;-83
2022/08/14 11:58:38;;;;;;;4.68;4.13;;;28.30;99.90;;;;;;5008786;28;20475;-83
2022/08/14 12:01:07;;;;;;;10.57;3.92;;;28.30;99.90;;;;;;5002879;28;20078;-84
2022/08/14 12:03:44;;;;;;;7.85;3.83;;;28.50;99.90;;;;;;4998607;28;20133;-83
2022/08/14 12:06:24;;;;;;;12.18;4.47;;;28.50;99.90;;;;;;4995373;28;20061;-82
2022/08/14 12:09:06;;;;;;;9.27;4.20;;;28.50;99.90;;;;;;4995533;28;20057;-83
2022/08/14 12:11:41;;;;;;;9.32;4.10;;;28.50;99.90;;;;;;5008415;28;20050;-83
2022/08/14 12:14:14;;;;;;;7.68;4.20;;;28.50;99.90;;;;;;5008137;28;20054;-82
2022/08/14 12:17:06;;;;;;;10.15;4.75;;;28.60;99.90;;;;;;5008067;28;20046;-83
2022/08/14 12:19:49;;;;;;;10.02;5.03;;;28.70;99.90;;;;;;5009047;28;20085;-83
2022/08/14 12:22:35;;;;;;;11.18;5.25;;;28.70;99.90;;;;;;5008269;28;20393;-83
2022/08/14 12:25:13;;;;;;;6.25;4.10;;;28.70;99.90;;;;;;5006233;28;20499;-83
2022/08/14 12:27:48;;;;;;;7.50;4.43;;;28.80;99.90;;;;;;5009926;28;20114;-83
2022/08/14 12:30:33;;;;;;;7.80;3.90;;;28.80;99.90;;;;;;5009104;28;20073;-83
2022/08/14 12:33:25;;;;;;;7.97;3.30;;;28.80;99.40;;;;;;5010898;28;20050;-83
2022/08/14 12:36:00;;;;;;;11.23;3.40;;;28.70;98.50;;;;;;5011109;28;20046;-84
2022/08/14 12:38:44;;;;;;;7.00;3.10;;;28.60;96.80;;;;;;4997932;28;20148;-83
2022/08/14 12:41:15;;;;;;;8.90;2.45;;;28.60;96.40;;;;;;5011911;28;20053;-83
2022/08/14 12:43:56;;;;;;;9.70;2.65;;;28.60;95.90;;;;;;5012985;28;20112;-83
2022/08/14 12:46:29;;;;;;;4.78;2.30;;;28.50;96.40;;;;;;5018023;28;20107;-82
2022/08/14 12:49:12;;;;;;;9.00;3.30;;;28.60;95.40;;;;;;5010610;28;20061;-83
2022/08/14 12:51:43;;;;;;;6.50;1.90;;;28.60;94.80;;;;;;5012872;28;20049;-83
2022/08/14 12:54:15;;;;;;;11.38;2.17;;;28.60;94.50;;;;;;5013480;28;20117;-83
2022/08/14 12:57:12;;;;;;;10.55;1.50;;;28.60;94.40;;;;;;4996367;28;20088;-83
2022/08/14 12:59:46;;;;;;;4.30;2.33;;;28.60;94.30;;;;;;4996743;28;20129;-83
2022/08/14 13:02:23;;;;;;;5.85;1.95;;;28.60;94.90;;;;;;5013274;28;20069;-84
2022/08/14 13:04:54;;;;;;;6.53;2.03;;;28.60;94.80;;;;;;5011344;28;20129;-82
2022/08/14 13:07:22;;;;;;;;;;;28.60;95.30;;;;;;5010952;28;20376;-82
2022/08/14 13:09:54;;;;;;;5.93;2.08;;;28.50;95.20;;;;;;5009790;28;20383;-83
2022/08/14 13:12:28;;;;;;;6.97;2.05;;;28.50;95.30;;;;;;4993892;28;20148;-83
2022/08/14 13:15:06;;;;;;;2.90;1.60;;;28.40;95.40;;;;;;5011684;28;20042;-83
2022/08/14 13:17:44;;;;;;;3.33;1.85;;;28.40;96.10;;;;;;5012305;28;20460;-83
2022/08/14 13:20:14;;;;;;;3.20;1.80;;;28.20;96.30;;;;;;4996753;28;20534;-83
2022/08/14 13:22:51;;;;;;;6.63;2.10;;;28.20;96.60;;;;;;4995647;28;20314;-83
2022/08/14 13:25:23;;;;;;;4.22;1.70;;;28.20;96.90;;;;;;5009278;28;20052;-82
2022/08/14 13:27:57;;;;;;;3.75;1.80;;;28.10;96.80;;;;;;5010149;28;20050;-83
2022/08/14 13:30:25;;;;;;;5.78;1.77;;;28.10;97.30;;;;;;5011825;28;20054;-84
2022/08/14 13:32:54;;;;;;;4.63;2.00;;;28.10;97.10;;;;;;4999877;28;20057;-81
2022/08/14 13:35:24;;;;;;;6.70;2.40;;;28.10;97.40;;;;;;5011207;28;20068;-82
2022/08/14 13:37:52;;;;;;;6.90;2.40;;;28.10;97.60;;;;;;5000676;28;20046;-83